sensor_id;sensor_type;location;lat;lon;timestamp;noise_LAeq;noise_LA_min;noise_LA_max;noise_LA01;noise_LA95
74470;Laerm;62918;55.706;37.816;2024-02-21T00:00:19;48.25;44.38;54.28;;
74470;Laerm;62918;55.706;37.816;2024-02-21T00:00:51;51.90;46.71;60.31;;
74470;Laerm;62918;55.706;37.816;2024-02-21T00:01:22;55.37;46.89;61.77;;
74470;Laerm;62918;55.706;37.816;2024-02-21T00:01:54;57.10;47.24;64.52;;
74470;Laerm;62918;55.706;37.816;2024-02-21T00:02:28;54.44;45.95;62.45;;
74470;Laerm;62918;55.706;37.816;2024-02-21T00:03:00;51.28;47.09;58.71;;
74470;Laerm;62918;55.706;37.816;2024-02-21T00:03:42;56.32;46.88;66.08;;
74470;Laerm;62918;55.706;37.816;2024-02-21T00:04:15;57.87;52.65;63.79;;
74470;Laerm;62918;55.706;37.816;2024-02-21T00:04:48;56.77;51.99;63.64;;
74470;Laerm;62918;55.706;37.816;2024-02-21T00:05:20;54.51;51.04;69.43;;
74470;Laerm;62918;55.706;37.816;2024-02-21T00:05:52;55.57;51.38;60.76;;
74470;Laerm;62918;55.706;37.816;2024-02-21T00:06:24;53.66;50.30;60.29;;
74470;Laerm;62918;55.706;37.816;2024-02-21T00:06:59;57.91;52.24;64.69;;
74470;Laerm;62918;55.706;37.816;2024-02-21T00:07:29;62.20;53.55;69.73;;
74470;Laerm;62918;55.706;37.816;2024-02-21T00:08:00;64.62;58.16;70.36;;
74470;Laerm;62918;55.706;37.816;2024-02-21T00:08:31;56.67;51.58;63.06;;
74470;Laerm;62918;55.706;37.816;2024-02-21T00:09:10;55.51;52.04;60.30;;
74470;Laerm;62918;55.706;37.816;2024-02-21T00:09:48;60.99;53.43;71.36;;
74470;Laerm;62918;55.706;37.816;2024-02-21T00:10:20;53.77;50.66;56.10;;
74470;Laerm;62918;55.706;37.816;2024-02-21T00:10:50;53.79;51.31;56.52;;
74470;Laerm;62918;55.706;37.816;2024-02-21T00:11:21;53.67;51.44;56.22;;
74470;Laerm;62918;55.706;37.816;2024-02-21T00:11:55;53.88;51.49;56.76;;
74470;Laerm;62918;55.706;37.816;2024-02-21T00:12:25;54.85;52.03;58.84;;
74470;Laerm;62918;55.706;37.816;2024-02-21T00:12:58;55.33;52.81;59.15;;
74470;Laerm;62918;55.706;37.816;2024-02-21T00:13:29;57.05;51.51;70.80;;
74470;Laerm;62918;55.706;37.816;2024-02-21T00:14:00;57.32;52.44;64.01;;
74470;Laerm;62918;55.706;37.816;2024-02-21T00:14:31;58.25;53.22;70.49;;
74470;Laerm;62918;55.706;37.816;2024-02-21T00:15:01;56.35;53.46;59.50;;
74470;Laerm;62918;55.706;37.816;2024-02-21T00:15:33;58.55;53.28;64.85;;
74470;Laerm;62918;55.706;37.816;2024-02-21T00:16:04;55.97;52.66;60.25;;
74470;Laerm;62918;55.706;37.816;2024-02-21T00:16:35;62.61;54.93;68.25;;
74470;Laerm;62918;55.706;37.816;2024-02-21T00:17:08;57.67;52.63;66.28;;
74470;Laerm;62918;55.706;37.816;2024-02-21T00:17:39;54.33;51.30;57.30;;
74470;Laerm;62918;55.706;37.816;2024-02-21T00:18:09;53.99;51.64;57.19;;
74470;Laerm;62918;55.706;37.816;2024-02-21T00:18:41;54.81;51.99;58.96;;
74470;Laerm;62918;55.706;37.816;2024-02-21T00:19:13;54.73;51.71;69.10;;
74470;Laerm;62918;55.706;37.816;2024-02-21T00:19:45;53.95;51.58;56.71;;
74470;Laerm;62918;55.706;37.816;2024-02-21T00:20:16;54.14;51.56;57.76;;
74470;Laerm;62918;55.706;37.816;2024-02-21T00:20:47;54.61;51.31;58.35;;
74470;Laerm;62918;55.706;37.816;2024-02-21T00:21:18;53.64;51.10;56.00;;
74470;Laerm;62918;55.706;37.816;2024-02-21T00:21:53;55.96;50.75;63.61;;
74470;Laerm;62918;55.706;37.816;2024-02-21T00:22:30;56.69;52.64;61.61;;
74470;Laerm;62918;55.706;37.816;2024-02-21T00:23:06;56.13;51.55;60.58;;
74470;Laerm;62918;55.706;37.816;2024-02-21T00:23:37;54.83;51.89;68.56;;
74470;Laerm;62918;55.706;37.816;2024-02-21T00:24:09;58.84;52.00;65.10;;
74470;Laerm;62918;55.706;37.816;2024-02-21T00:24:41;56.27;51.62;63.23;;
74470;Laerm;62918;55.706;37.816;2024-02-21T00:25:16;54.67;51.46;59.84;;
74470;Laerm;62918;55.706;37.816;2024-02-21T00:25:54;53.97;51.66;58.36;;
74470;Laerm;62918;55.706;37.816;2024-02-21T00:26:26;54.88;51.44;59.80;;
74470;Laerm;62918;55.706;37.816;2024-02-21T00:27:00;54.98;52.24;62.77;;
74470;Laerm;62918;55.706;37.816;2024-02-21T00:27:40;55.17;51.66;66.17;;
74470;Laerm;62918;55.706;37.816;2024-02-21T00:28:18;55.30;51.42;70.95;;
74470;Laerm;62918;55.706;37.816;2024-02-21T00:28:51;53.87;51.45;57.26;;
74470;Laerm;62918;55.706;37.816;2024-02-21T00:29:25;54.13;51.09;58.69;;
74470;Laerm;62918;55.706;37.816;2024-02-21T00:30:01;53.94;51.38;58.32;;
74470;Laerm;62918;55.706;37.816;2024-02-21T00:30:33;53.68;50.75;59.04;;
74470;Laerm;62918;55.706;37.816;2024-02-21T00:31:04;54.00;50.90;60.83;;
74470;Laerm;62918;55.706;37.816;2024-02-21T00:31:36;54.11;51.52;60.36;;
74470;Laerm;62918;55.706;37.816;2024-02-21T00:32:07;54.23;50.69;62.58;;
74470;Laerm;62918;55.706;37.816;2024-02-21T00:32:37;55.38;52.58;67.60;;
74470;Laerm;62918;55.706;37.816;2024-02-21T00:33:09;55.12;51.87;57.68;;
74470;Laerm;62918;55.706;37.816;2024-02-21T00:33:40;54.23;51.50;57.23;;
74470;Laerm;62918;55.706;37.816;2024-02-21T00:34:13;54.03;51.49;56.19;;
74470;Laerm;62918;55.706;37.816;2024-02-21T00:34:46;53.84;51.85;56.50;;
74470;Laerm;62918;55.706;37.816;2024-02-21T00:35:31;57.07;52.51;61.90;;
74470;Laerm;62918;55.706;37.816;2024-02-21T00:36:03;54.40;51.97;56.68;;
74470;Laerm;62918;55.706;37.816;2024-02-21T00:36:35;58.44;52.28;66.69;;
74470;Laerm;62918;55.706;37.816;2024-02-21T00:37:05;56.21;51.77;69.26;;
74470;Laerm;62918;55.706;37.816;2024-02-21T00:37:39;54.09;51.71;56.94;;
74470;Laerm;62918;55.706;37.816;2024-02-21T00:38:11;53.77;51.09;56.48;;
74470;Laerm;62918;55.706;37.816;2024-02-21T00:38:42;53.66;50.85;58.05;;
74470;Laerm;62918;55.706;37.816;2024-02-21T00:39:13;53.79;50.90;57.14;;
74470;Laerm;62918;55.706;37.816;2024-02-21T00:39:46;62.90;52.60;72.07;;
74470;Laerm;62918;55.706;37.816;2024-02-21T00:40:17;56.08;52.70;61.31;;
74470;Laerm;62918;55.706;37.816;2024-02-21T00:40:57;54.98;51.60;62.24;;
74470;Laerm;62918;55.706;37.816;2024-02-21T00:41:28;56.47;52.12;59.66;;
74470;Laerm;62918;55.706;37.816;2024-02-21T00:42:00;54.22;51.23;69.42;;
74470;Laerm;62918;55.706;37.816;2024-02-21T00:42:35;54.00;51.72;56.79;;
74470;Laerm;62918;55.706;37.816;2024-02-21T00:43:16;54.77;51.54;60.12;;
74470;Laerm;62918;55.706;37.816;2024-02-21T00:43:47;57.32;52.48;61.51;;
74470;Laerm;62918;55.706;37.816;2024-02-21T00:44:19;56.84;53.83;64.05;;
74470;Laerm;62918;55.706;37.816;2024-02-21T00:44:50;55.01;52.17;58.95;;
74470;Laerm;62918;55.706;37.816;2024-02-21T00:45:23;59.27;52.07;67.82;;
74470;Laerm;62918;55.706;37.816;2024-02-21T00:45:54;58.07;52.90;66.53;;
74470;Laerm;62918;55.706;37.816;2024-02-21T00:46:25;56.27;51.74;68.82;;
74470;Laerm;62918;55.706;37.816;2024-02-21T00:46:57;62.31;52.37;72.65;;
74470;Laerm;62918;55.706;37.816;2024-02-21T00:47:28;56.59;51.82;63.05;;
74470;Laerm;62918;55.706;37.816;2024-02-21T00:47:58;57.66;53.96;61.86;;
74470;Laerm;62918;55.706;37.816;2024-02-21T00:48:31;56.91;52.00;62.77;;
74470;Laerm;62918;55.706;37.816;2024-02-21T00:49:01;62.20;52.68;71.21;;
74470;Laerm;62918;55.706;37.816;2024-02-21T00:49:33;53.81;51.25;56.90;;
74470;Laerm;62918;55.706;37.816;2024-02-21T00:50:04;55.84;51.20;60.97;;
74470;Laerm;62918;55.706;37.816;2024-02-21T00:50:39;56.60;51.99;68.98;;
74470;Laerm;62918;55.706;37.816;2024-02-21T00:51:13;57.97;51.61;65.90;;
74470;Laerm;62918;55.706;37.816;2024-02-21T00:51:44;60.25;53.94;67.02;;
74470;Laerm;62918;55.706;37.816;2024-02-21T00:52:16;54.98;51.80;57.98;;
74470;Laerm;62918;55.706;37.816;2024-02-21T00:52:48;54.07;51.58;60.92;;
74470;Laerm;62918;55.706;37.816;2024-02-21T00:53:23;54.08;51.38;56.39;;
74470;Laerm;62918;55.706;37.816;2024-02-21T00:54:00;53.91;51.52;57.06;;
74470;Laerm;62918;55.706;37.816;2024-02-21T00:54:35;53.98;51.03;56.68;;
74470;Laerm;62918;55.706;37.816;2024-02-21T00:55:06;58.82;52.67;67.60;;
74470;Laerm;62918;55.706;37.816;2024-02-21T00:55:43;56.28;52.85;60.48;;
74470;Laerm;62918;55.706;37.816;2024-02-21T00:56:13;55.02;51.87;60.93;;
74470;Laerm;62918;55.706;37.816;2024-02-21T00:56:48;54.13;51.16;57.36;;
74470;Laerm;62918;55.706;37.816;2024-02-21T00:57:26;56.12;51.29;60.53;;
74470;Laerm;62918;55.706;37.816;2024-02-21T00:57:56;58.28;53.05;63.87;;
74470;Laerm;62918;55.706;37.816;2024-02-21T00:58:27;56.27;52.32;65.07;;
74470;Laerm;62918;55.706;37.816;2024-02-21T00:58:57;56.45;51.59;68.48;;
74470;Laerm;62918;55.706;37.816;2024-02-21T00:59:28;54.05;51.33;60.54;;
74470;Laerm;62918;55.706;37.816;2024-02-21T01:00:00;55.25;51.63;69.00;;
74470;Laerm;62918;55.706;37.816;2024-02-21T01:00:32;54.15;51.29;56.98;;
74470;Laerm;62918;55.706;37.816;2024-02-21T01:01:02;53.93;51.01;56.37;;
74470;Laerm;62918;55.706;37.816;2024-02-21T01:01:33;57.32;51.88;61.49;;
74470;Laerm;62918;55.706;37.816;2024-02-21T01:02:05;55.49;52.22;60.27;;
74470;Laerm;62918;55.706;37.816;2024-02-21T01:02:35;54.52;51.91;57.81;;
74470;Laerm;62918;55.706;37.816;2024-02-21T01:03:07;56.95;52.13;72.68;;
74470;Laerm;62918;55.706;37.816;2024-02-21T01:03:39;62.38;52.04;71.50;;
74470;Laerm;62918;55.706;37.816;2024-02-21T01:04:10;60.54;52.36;70.24;;
74470;Laerm;62918;55.706;37.816;2024-02-21T01:04:41;55.05;51.63;57.82;;
74470;Laerm;62918;55.706;37.816;2024-02-21T01:05:15;55.37;52.75;57.96;;
74470;Laerm;62918;55.706;37.816;2024-02-21T01:05:45;55.51;52.54;58.63;;
74470;Laerm;62918;55.706;37.816;2024-02-21T01:06:16;54.35;51.66;56.74;;
74470;Laerm;62918;55.706;37.816;2024-02-21T01:06:47;54.25;51.93;56.58;;
74470;Laerm;62918;55.706;37.816;2024-02-21T01:07:17;54.30;51.22;58.47;;
74470;Laerm;62918;55.706;37.816;2024-02-21T01:07:48;54.24;51.75;56.57;;
74470;Laerm;62918;55.706;37.816;2024-02-21T01:08:18;56.66;51.63;60.53;;
74470;Laerm;62918;55.706;37.816;2024-02-21T01:08:49;55.37;52.00;68.35;;
74470;Laerm;62918;55.706;37.816;2024-02-21T01:09:24;54.51;51.89;57.73;;
74470;Laerm;62918;55.706;37.816;2024-02-21T01:09:55;60.44;52.87;69.05;;
74470;Laerm;62918;55.706;37.816;2024-02-21T01:10:26;57.68;52.75;65.28;;
74470;Laerm;62918;55.706;37.816;2024-02-21T01:10:57;56.19;52.26;60.79;;
74470;Laerm;62918;55.706;37.816;2024-02-21T01:11:27;56.33;51.51;61.36;;
74470;Laerm;62918;55.706;37.816;2024-02-21T01:11:58;55.68;51.33;61.25;;
74470;Laerm;62918;55.706;37.816;2024-02-21T01:12:28;55.05;52.39;58.75;;
74470;Laerm;62918;55.706;37.816;2024-02-21T01:12:59;55.87;53.58;58.20;;
74470;Laerm;62918;55.706;37.816;2024-02-21T01:13:29;54.85;51.77;69.34;;
74470;Laerm;62918;55.706;37.816;2024-02-21T01:14:00;56.60;51.41;65.57;;
74470;Laerm;62918;55.706;37.816;2024-02-21T01:14:31;56.32;50.78;65.06;;
74470;Laerm;62918;55.706;37.816;2024-02-21T01:15:01;56.11;51.94;59.63;;
74470;Laerm;62918;55.706;37.816;2024-02-21T01:15:32;57.10;52.40;61.44;;
74470;Laerm;62918;55.706;37.816;2024-02-21T01:16:02;59.26;51.74;65.39;;
74470;Laerm;62918;55.706;37.816;2024-02-21T01:16:33;55.10;51.59;61.79;;
74470;Laerm;62918;55.706;37.816;2024-02-21T01:17:04;54.49;50.77;59.36;;
74470;Laerm;62918;55.706;37.816;2024-02-21T01:17:36;55.63;52.00;67.90;;
74470;Laerm;62918;55.706;37.816;2024-02-21T01:18:06;56.75;52.87;63.25;;
74470;Laerm;62918;55.706;37.816;2024-02-21T01:18:37;53.92;50.81;56.73;;
74470;Laerm;62918;55.706;37.816;2024-02-21T01:19:08;57.53;50.90;64.11;;
74470;Laerm;62918;55.706;37.816;2024-02-21T01:19:38;53.87;51.70;56.56;;
74470;Laerm;62918;55.706;37.816;2024-02-21T01:20:09;53.73;50.94;56.35;;
74470;Laerm;62918;55.706;37.816;2024-02-21T01:20:40;54.59;51.73;57.84;;
74470;Laerm;62918;55.706;37.816;2024-02-21T01:21:10;53.59;51.27;55.78;;
74470;Laerm;62918;55.706;37.816;2024-02-21T01:21:41;53.92;51.36;56.50;;
74470;Laerm;62918;55.706;37.816;2024-02-21T01:22:12;55.32;51.96;68.44;;
74470;Laerm;62918;55.706;37.816;2024-02-21T01:22:42;56.60;51.28;64.21;;
74470;Laerm;62918;55.706;37.816;2024-02-21T01:23:13;54.29;51.43;58.06;;
74470;Laerm;62918;55.706;37.816;2024-02-21T01:23:43;57.84;51.70;66.22;;
74470;Laerm;62918;55.706;37.816;2024-02-21T01:24:14;53.94;51.47;57.54;;
74470;Laerm;62918;55.706;37.816;2024-02-21T01:24:45;61.59;52.80;68.37;;
74470;Laerm;62918;55.706;37.816;2024-02-21T01:25:16;59.25;53.05;63.80;;
74470;Laerm;62918;55.706;37.816;2024-02-21T01:25:46;54.24;50.41;57.26;;
74470;Laerm;62918;55.706;37.816;2024-02-21T01:26:17;54.71;51.51;59.38;;
74470;Laerm;62918;55.706;37.816;2024-02-21T01:26:48;56.01;51.77;69.30;;
74470;Laerm;62918;55.706;37.816;2024-02-21T01:27:19;54.15;50.72;56.93;;
74470;Laerm;62918;55.706;37.816;2024-02-21T01:27:50;53.99;51.30;56.62;;
74470;Laerm;62918;55.706;37.816;2024-02-21T01:28:20;55.20;51.72;58.67;;
74470;Laerm;62918;55.706;37.816;2024-02-21T01:28:51;54.72;51.76;59.04;;
74470;Laerm;62918;55.706;37.816;2024-02-21T01:29:22;54.00;51.58;56.36;;
74470;Laerm;62918;55.706;37.816;2024-02-21T01:29:53;54.80;51.09;59.48;;
74470;Laerm;62918;55.706;37.816;2024-02-21T01:30:23;53.87;51.54;56.60;;
74470;Laerm;62918;55.706;37.816;2024-02-21T01:30:55;54.29;51.08;68.16;;
74470;Laerm;62918;55.706;37.816;2024-02-21T01:31:26;53.79;50.62;56.39;;
74470;Laerm;62918;55.706;37.816;2024-02-21T01:31:56;58.19;51.76;64.18;;
74470;Laerm;62918;55.706;37.816;2024-02-21T01:32:27;53.95;50.85;56.57;;
74470;Laerm;62918;55.706;37.816;2024-02-21T01:32:57;54.34;51.46;56.81;;
74470;Laerm;62918;55.706;37.816;2024-02-21T01:33:28;53.84;51.71;56.24;;
74470;Laerm;62918;55.706;37.816;2024-02-21T01:34:01;54.91;51.89;59.81;;
74470;Laerm;62918;55.706;37.816;2024-02-21T01:34:32;60.90;51.25;77.95;;
74470;Laerm;62918;55.706;37.816;2024-02-21T01:35:03;54.17;50.48;56.91;;
74470;Laerm;62918;55.706;37.816;2024-02-21T01:35:34;54.67;51.68;70.57;;
74470;Laerm;62918;55.706;37.816;2024-02-21T01:36:05;53.83;51.30;56.34;;
74470;Laerm;62918;55.706;37.816;2024-02-21T01:36:39;54.11;51.08;56.55;;
74470;Laerm;62918;55.706;37.816;2024-02-21T01:37:09;54.05;51.22;57.64;;
74470;Laerm;62918;55.706;37.816;2024-02-21T01:37:40;53.94;51.69;56.17;;
74470;Laerm;62918;55.706;37.816;2024-02-21T01:38:12;56.71;52.34;62.29;;
74470;Laerm;62918;55.706;37.816;2024-02-21T01:38:43;64.39;56.32;74.60;;
74470;Laerm;62918;55.706;37.816;2024-02-21T01:39:14;58.85;55.89;61.83;;
74470;Laerm;62918;55.706;37.816;2024-02-21T01:39:44;59.17;55.75;64.00;;
74470;Laerm;62918;55.706;37.816;2024-02-21T01:40:15;62.35;53.14;69.63;;
74470;Laerm;62918;55.706;37.816;2024-02-21T01:40:45;54.35;50.54;56.90;;
74470;Laerm;62918;55.706;37.816;2024-02-21T01:41:16;53.82;51.17;56.17;;
74470;Laerm;62918;55.706;37.816;2024-02-21T01:41:46;54.05;51.11;56.71;;
74470;Laerm;62918;55.706;37.816;2024-02-21T01:42:17;53.89;51.41;55.90;;
74470;Laerm;62918;55.706;37.816;2024-02-21T01:42:47;54.69;51.47;63.23;;
74470;Laerm;62918;55.706;37.816;2024-02-21T01:43:19;63.10;54.45;69.52;;
74470;Laerm;62918;55.706;37.816;2024-02-21T01:43:50;58.47;53.82;71.82;;
74470;Laerm;62918;55.706;37.816;2024-02-21T01:44:21;57.43;52.91;67.68;;
74470;Laerm;62918;55.706;37.816;2024-02-21T01:44:51;57.21;53.26;68.17;;
74470;Laerm;62918;55.706;37.816;2024-02-21T01:45:22;54.60;52.19;59.77;;
74470;Laerm;62918;55.706;37.816;2024-02-21T01:45:57;54.68;51.90;58.87;;
74470;Laerm;62918;55.706;37.816;2024-02-21T01:46:28;54.18;50.80;58.36;;
74470;Laerm;62918;55.706;37.816;2024-02-21T01:47:01;55.03;51.08;61.05;;
74470;Laerm;62918;55.706;37.816;2024-02-21T01:47:32;55.56;52.59;61.97;;
74470;Laerm;62918;55.706;37.816;2024-02-21T01:48:03;57.38;51.36;62.09;;
74470;Laerm;62918;55.706;37.816;2024-02-21T01:48:34;57.60;53.14;61.86;;
74470;Laerm;62918;55.706;37.816;2024-02-21T01:49:05;56.23;52.21;70.02;;
74470;Laerm;62918;55.706;37.816;2024-02-21T01:49:36;54.52;51.70;57.12;;
74470;Laerm;62918;55.706;37.816;2024-02-21T01:50:07;54.27;51.49;57.90;;
74470;Laerm;62918;55.706;37.816;2024-02-21T01:50:38;54.50;51.22;60.95;;
74470;Laerm;62918;55.706;37.816;2024-02-21T01:51:09;58.32;51.08;73.94;;
74470;Laerm;62918;55.706;37.816;2024-02-21T01:51:40;58.02;52.34;74.55;;
74470;Laerm;62918;55.706;37.816;2024-02-21T01:52:12;61.30;54.15;67.89;;
74470;Laerm;62918;55.706;37.816;2024-02-21T01:52:46;54.46;51.94;61.41;;
74470;Laerm;62918;55.706;37.816;2024-02-21T01:53:29;58.46;52.70;71.18;;
74470;Laerm;62918;55.706;37.816;2024-02-21T01:54:00;54.38;52.03;60.12;;
74470;Laerm;62918;55.706;37.816;2024-02-21T01:54:31;58.69;52.85;63.30;;
74470;Laerm;62918;55.706;37.816;2024-02-21T01:55:02;55.28;52.03;69.42;;
74470;Laerm;62918;55.706;37.816;2024-02-21T01:55:33;57.21;51.95;63.42;;
74470;Laerm;62918;55.706;37.816;2024-02-21T01:56:05;61.18;53.67;69.93;;
74470;Laerm;62918;55.706;37.816;2024-02-21T01:56:36;58.94;51.70;69.26;;
74470;Laerm;62918;55.706;37.816;2024-02-21T01:57:07;56.95;51.76;63.37;;
74470;Laerm;62918;55.706;37.816;2024-02-21T01:57:38;57.85;53.67;62.60;;
74470;Laerm;62918;55.706;37.816;2024-02-21T01:58:08;70.38;55.75;80.46;;
74470;Laerm;62918;55.706;37.816;2024-02-21T01:58:40;68.81;60.06;74.86;;
74470;Laerm;62918;55.706;37.816;2024-02-21T01:59:13;56.82;53.07;62.40;;
74470;Laerm;62918;55.706;37.816;2024-02-21T01:59:44;57.54;53.08;61.98;;
74470;Laerm;62918;55.706;37.816;2024-02-21T02:00:16;57.99;55.01;61.35;;
74470;Laerm;62918;55.706;37.816;2024-02-21T02:00:47;57.04;54.18;62.56;;
74470;Laerm;62918;55.706;37.816;2024-02-21T02:01:18;58.59;55.00;62.79;;
74470;Laerm;62918;55.706;37.816;2024-02-21T02:01:51;57.43;54.77;59.50;;
74470;Laerm;62918;55.706;37.816;2024-02-21T02:02:22;68.05;55.86;77.62;;
74470;Laerm;62918;55.706;37.816;2024-02-21T02:02:53;57.25;54.31;61.06;;
74470;Laerm;62918;55.706;37.816;2024-02-21T02:03:24;55.44;52.24;58.43;;
74470;Laerm;62918;55.706;37.816;2024-02-21T02:03:55;56.55;53.15;60.96;;
74470;Laerm;62918;55.706;37.816;2024-02-21T02:04:27;55.31;53.05;58.66;;
74470;Laerm;62918;55.706;37.816;2024-02-21T02:04:58;56.30;52.94;60.30;;
74470;Laerm;62918;55.706;37.816;2024-02-21T02:05:29;57.39;54.22;61.32;;
74470;Laerm;62918;55.706;37.816;2024-02-21T02:06:00;57.69;53.69;64.23;;
74470;Laerm;62918;55.706;37.816;2024-02-21T02:06:31;56.10;52.69;59.68;;
74470;Laerm;62918;55.706;37.816;2024-02-21T02:07:02;58.87;55.58;68.89;;
74470;Laerm;62918;55.706;37.816;2024-02-21T02:07:35;58.11;53.25;64.50;;
74470;Laerm;62918;55.706;37.816;2024-02-21T02:08:06;64.91;57.92;73.15;;
74470;Laerm;62918;55.706;37.816;2024-02-21T02:08:37;61.43;56.11;74.39;;
74470;Laerm;62918;55.706;37.816;2024-02-21T02:09:08;56.85;52.15;64.29;;
74470;Laerm;62918;55.706;37.816;2024-02-21T02:09:38;56.83;52.74;64.90;;
74470;Laerm;62918;55.706;37.816;2024-02-21T02:10:09;58.38;52.67;65.86;;
74470;Laerm;62918;55.706;37.816;2024-02-21T02:10:41;55.10;51.75;67.78;;
74470;Laerm;62918;55.706;37.816;2024-02-21T02:11:13;57.00;52.46;64.40;;
74470;Laerm;62918;55.706;37.816;2024-02-21T02:11:44;61.21;54.92;68.84;;
74470;Laerm;62918;55.706;37.816;2024-02-21T02:12:15;56.59;52.71;61.46;;
74470;Laerm;62918;55.706;37.816;2024-02-21T02:12:46;59.88;53.20;65.94;;
74470;Laerm;62918;55.706;37.816;2024-02-21T02:13:17;54.57;51.55;64.14;;
74470;Laerm;62918;55.706;37.816;2024-02-21T02:13:47;56.15;51.97;67.00;;
74470;Laerm;62918;55.706;37.816;2024-02-21T02:14:18;56.12;52.62;66.31;;
74470;Laerm;62918;55.706;37.816;2024-02-21T02:15:00;55.86;52.21;66.92;;
74470;Laerm;62918;55.706;37.816;2024-02-21T02:15:57;56.74;52.85;70.49;;
74470;Laerm;62918;55.706;37.816;2024-02-21T02:16:28;57.27;52.95;62.63;;
74470;Laerm;62918;55.706;37.816;2024-02-21T02:16:58;59.25;55.11;63.97;;
74470;Laerm;62918;55.706;37.816;2024-02-21T02:17:39;56.72;53.46;61.19;;
74470;Laerm;62918;55.706;37.816;2024-02-21T02:18:14;60.72;54.10;66.79;;
74470;Laerm;62918;55.706;37.816;2024-02-21T02:18:45;60.58;55.36;65.81;;
74470;Laerm;62918;55.706;37.816;2024-02-21T02:19:16;56.98;52.69;62.01;;
74470;Laerm;62918;55.706;37.816;2024-02-21T02:19:46;54.86;51.53;66.23;;
74470;Laerm;62918;55.706;37.816;2024-02-21T02:20:17;56.92;51.84;62.14;;
74470;Laerm;62918;55.706;37.816;2024-02-21T02:20:47;57.21;53.97;67.56;;
74470;Laerm;62918;55.706;37.816;2024-02-21T02:21:39;56.84;53.56;61.25;;
74470;Laerm;62918;55.706;37.816;2024-02-21T02:22:22;62.76;57.76;67.91;;
74470;Laerm;62918;55.706;37.816;2024-02-21T02:23:25;65.19;58.12;78.54;;
74470;Laerm;62918;55.706;37.816;2024-02-21T02:23:57;64.03;57.44;68.84;;
74470;Laerm;62918;55.706;37.816;2024-02-21T02:24:27;64.64;59.35;71.00;;
74470;Laerm;62918;55.706;37.816;2024-02-21T02:25:01;62.68;57.84;68.24;;
74470;Laerm;62918;55.706;37.816;2024-02-21T02:25:31;58.00;53.76;62.28;;
74470;Laerm;62918;55.706;37.816;2024-02-21T02:26:05;55.70;52.23;61.59;;
74470;Laerm;62918;55.706;37.816;2024-02-21T02:26:40;63.36;54.11;72.06;;
74470;Laerm;62918;55.706;37.816;2024-02-21T02:27:13;63.15;59.16;67.53;;
74470;Laerm;62918;55.706;37.816;2024-02-21T02:27:44;66.24;60.26;75.60;;
74470;Laerm;62918;55.706;37.816;2024-02-21T02:28:15;63.30;58.38;66.56;;
74470;Laerm;62918;55.706;37.816;2024-02-21T02:28:46;56.48;51.13;62.46;;
74470;Laerm;62918;55.706;37.816;2024-02-21T02:29:16;56.38;53.11;62.20;;
74470;Laerm;62918;55.706;37.816;2024-02-21T02:29:47;66.84;54.35;73.89;;
74470;Laerm;62918;55.706;37.816;2024-02-21T02:30:18;59.97;52.96;68.00;;
74470;Laerm;62918;55.706;37.816;2024-02-21T02:30:49;55.88;51.97;60.44;;
74470;Laerm;62918;55.706;37.816;2024-02-21T02:31:20;55.19;51.22;59.22;;
74470;Laerm;62918;55.706;37.816;2024-02-21T02:31:51;54.70;51.80;58.08;;
74470;Laerm;62918;55.706;37.816;2024-02-21T02:32:21;55.54;52.70;60.27;;
74470;Laerm;62918;55.706;37.816;2024-02-21T02:32:52;57.28;52.38;62.28;;
74470;Laerm;62918;55.706;37.816;2024-02-21T02:33:22;55.50;52.12;65.39;;
74470;Laerm;62918;55.706;37.816;2024-02-21T02:33:53;57.02;53.33;60.64;;
74470;Laerm;62918;55.706;37.816;2024-02-21T02:34:24;61.57;56.40;70.35;;
74470;Laerm;62918;55.706;37.816;2024-02-21T02:34:54;56.22;51.84;60.20;;
74470;Laerm;62918;55.706;37.816;2024-02-21T02:35:25;60.35;53.52;68.62;;
74470;Laerm;62918;55.706;37.816;2024-02-21T02:35:56;59.43;54.17;64.48;;
74470;Laerm;62918;55.706;37.816;2024-02-21T02:36:28;57.10;52.67;60.53;;
74470;Laerm;62918;55.706;37.816;2024-02-21T02:36:58;55.92;52.74;60.96;;
74470;Laerm;62918;55.706;37.816;2024-02-21T02:37:29;58.44;52.04;63.79;;
74470;Laerm;62918;55.706;37.816;2024-02-21T02:37:59;56.25;52.86;60.71;;
74470;Laerm;62918;55.706;37.816;2024-02-21T02:38:30;56.21;52.87;69.21;;
74470;Laerm;62918;55.706;37.816;2024-02-21T02:39:00;61.10;54.96;65.50;;
74470;Laerm;62918;55.706;37.816;2024-02-21T02:39:31;59.93;54.72;67.51;;
74470;Laerm;62918;55.706;37.816;2024-02-21T02:40:02;58.15;53.26;63.19;;
74470;Laerm;62918;55.706;37.816;2024-02-21T02:40:34;59.98;55.02;68.93;;
74470;Laerm;62918;55.706;37.816;2024-02-21T02:41:05;55.39;52.02;60.75;;
74470;Laerm;62918;55.706;37.816;2024-02-21T02:41:36;56.09;53.38;59.56;;
74470;Laerm;62918;55.706;37.816;2024-02-21T02:42:06;55.01;52.46;66.65;;
74470;Laerm;62918;55.706;37.816;2024-02-21T02:42:37;57.08;52.28;60.78;;
74470;Laerm;62918;55.706;37.816;2024-02-21T02:43:08;61.29;55.50;71.61;;
74470;Laerm;62918;55.706;37.816;2024-02-21T02:43:38;62.97;54.92;68.62;;
74470;Laerm;62918;55.706;37.816;2024-02-21T02:44:09;57.04;54.33;59.70;;
74470;Laerm;62918;55.706;37.816;2024-02-21T02:44:40;56.69;53.67;59.87;;
74470;Laerm;62918;55.706;37.816;2024-02-21T02:45:10;57.73;53.45;61.34;;
74470;Laerm;62918;55.706;37.816;2024-02-21T02:45:41;57.48;53.56;65.94;;
74470;Laerm;62918;55.706;37.816;2024-02-21T02:46:11;59.60;54.97;63.35;;
74470;Laerm;62918;55.706;37.816;2024-02-21T02:46:42;59.40;52.01;68.14;;
74470;Laerm;62918;55.706;37.816;2024-02-21T02:47:12;56.38;52.01;62.62;;
74470;Laerm;62918;55.706;37.816;2024-02-21T02:47:46;61.08;53.45;68.10;;
74470;Laerm;62918;55.706;37.816;2024-02-21T02:48:17;60.69;55.88;66.15;;
74470;Laerm;62918;55.706;37.816;2024-02-21T02:48:50;59.13;55.23;64.74;;
74470;Laerm;62918;55.706;37.816;2024-02-21T02:49:20;61.34;55.85;66.30;;
74470;Laerm;62918;55.706;37.816;2024-02-21T02:49:51;58.33;53.30;63.50;;
74470;Laerm;62918;55.706;37.816;2024-02-21T02:50:22;58.79;53.73;62.35;;
74470;Laerm;62918;55.706;37.816;2024-02-21T02:50:53;60.06;53.75;70.73;;
74470;Laerm;62918;55.706;37.816;2024-02-21T02:51:23;62.40;53.57;69.41;;
74470;Laerm;62918;55.706;37.816;2024-02-21T02:51:54;60.05;54.73;68.14;;
74470;Laerm;62918;55.706;37.816;2024-02-21T02:52:24;56.96;51.62;69.19;;
74470;Laerm;62918;55.706;37.816;2024-02-21T02:52:55;58.38;52.41;65.13;;
74470;Laerm;62918;55.706;37.816;2024-02-21T02:53:26;63.13;59.00;66.82;;
74470;Laerm;62918;55.706;37.816;2024-02-21T02:53:57;63.38;57.55;69.58;;
74470;Laerm;62918;55.706;37.816;2024-02-21T02:54:27;58.63;55.06;63.03;;
74470;Laerm;62918;55.706;37.816;2024-02-21T02:54:58;63.80;56.40;68.93;;
74470;Laerm;62918;55.706;37.816;2024-02-21T02:55:29;62.79;56.38;68.18;;
74470;Laerm;62918;55.706;37.816;2024-02-21T02:55:59;61.44;55.88;67.95;;
74470;Laerm;62918;55.706;37.816;2024-02-21T02:56:30;65.49;58.35;74.30;;